createdAt,value
2018-03-24T00:01:10.998Z,10.87
2018-03-24T00:07:01.859Z,10.34
2018-03-24T00:12:52.714Z,9.73
2018-03-24T00:18:43.560Z,9.61
2018-03-24T00:24:34.393Z,9.61
2018-03-24T00:30:25.315Z,9.91
2018-03-24T00:36:16.123Z,8.89
2018-03-24T00:42:06.997Z,8.61
2018-03-24T00:47:57.861Z,9.99
2018-03-24T00:53:48.704Z,9.74
2018-03-24T00:59:39.544Z,9.75
2018-03-24T01:05:30.423Z,9.61
2018-03-24T01:11:21.257Z,9.32
2018-03-24T01:17:12.126Z,8.02
2018-03-24T01:23:02.936Z,8.43
2018-03-24T01:28:53.836Z,9.54
2018-03-24T01:34:44.692Z,8.05
2018-03-24T01:40:35.469Z,9.34
2018-03-24T01:46:26.376Z,9.36
2018-03-24T01:52:17.216Z,8.77
2018-03-24T01:58:08.131Z,9.62
2018-03-24T02:03:58.927Z,9.64
2018-03-24T02:09:49.723Z,9.71
2018-03-24T02:15:40.605Z,10.73
2018-03-24T02:21:31.475Z,11.29
2018-03-24T02:27:22.272Z,11.42
2018-03-24T02:33:13.176Z,9.67
2018-03-24T02:39:03.992Z,10.55
2018-03-24T02:44:54.835Z,9.71
2018-03-24T02:50:45.679Z,10.02
2018-03-24T02:56:36.581Z,9.64
2018-03-24T03:02:27.396Z,9.44
2018-03-24T03:08:18.231Z,9.38
2018-03-24T03:14:09.106Z,8.77
2018-03-24T03:19:59.972Z,9.15
2018-03-24T03:25:50.767Z,9.65
2018-03-24T03:31:41.615Z,8.54
2018-03-24T03:37:32.469Z,9.2
2018-03-24T03:43:23.298Z,7.93
2018-03-24T03:49:14.172Z,8.78
2018-03-24T03:55:04.998Z,8.73
2018-03-24T04:00:55.886Z,8.24
2018-03-24T04:06:46.679Z,7.5
2018-03-24T04:12:37.633Z,7.21
2018-03-24T04:18:28.407Z,6.96
2018-03-24T04:24:19.280Z,7.14
2018-03-24T04:30:10.118Z,8.29
2018-03-24T04:36:00.951Z,8.53
2018-03-24T04:41:51.796Z,7.4
2018-03-24T04:47:42.600Z,7.83
2018-03-24T04:53:33.450Z,8.29
2018-03-24T04:59:24.326Z,6.96
2018-03-24T05:05:15.179Z,7.55
2018-03-24T05:11:06.005Z,8.34
2018-03-24T05:16:56.903Z,8.26
2018-03-24T05:22:47.686Z,7.43
2018-03-24T05:28:38.530Z,7.73
2018-03-24T05:34:29.397Z,7.52
2018-03-24T05:40:20.248Z,8.34
2018-03-24T05:46:11.096Z,8.74
2018-03-24T05:52:01.915Z,8.59
2018-03-24T05:57:52.761Z,9.16
2018-03-24T06:03:43.628Z,8.81
2018-03-24T06:09:34.470Z,8.57
2018-03-24T06:15:25.274Z,8.96
2018-03-24T06:21:16.175Z,8.97
2018-03-24T06:27:06.981Z,8.23
2018-03-24T06:32:57.811Z,8.16
2018-03-24T06:38:48.703Z,9.37
2018-03-24T06:44:39.513Z,8.34
2018-03-24T06:50:30.366Z,9.85
2018-03-24T06:56:21.223Z,10.09
2018-03-24T07:02:12.055Z,9.1
2018-03-24T07:08:02.880Z,9.31
2018-03-24T07:13:53.736Z,9.05
2018-03-24T07:19:44.596Z,9.8
2018-03-24T07:25:35.419Z,9.32
2018-03-24T07:31:26.360Z,9.25
2018-03-24T07:37:17.137Z,9.29
2018-03-24T07:43:08.005Z,9.4
2018-03-24T07:48:58.809Z,9.41
2018-03-24T07:54:49.712Z,9.36
2018-03-24T08:00:40.570Z,10.07
2018-03-24T08:06:31.444Z,9.54
2018-03-24T08:12:22.210Z,9.11
2018-03-24T08:18:13.090Z,10.81
2018-03-24T08:24:03.960Z,10.56
2018-03-24T08:29:54.765Z,11.15
2018-03-24T08:35:45.594Z,9.93
2018-03-24T08:41:36.443Z,12.11
2018-03-24T08:47:27.325Z,11.33
2018-03-24T08:53:18.167Z,11.3
2018-03-24T08:59:08.974Z,11.68
2018-03-24T09:04:59.844Z,11.51
2018-03-24T09:10:50.671Z,15.77
2018-03-24T09:16:41.578Z,17.16
2018-03-24T09:22:32.375Z,15.45
2018-03-24T09:28:23.252Z,13.32
2018-03-24T09:34:14.108Z,11.7
2018-03-24T09:40:04.932Z,10.15
2018-03-24T09:45:55.825Z,9.7
2018-03-24T09:51:46.664Z,8.6
2018-03-24T09:57:37.527Z,8.75
2018-03-24T10:03:28.366Z,9.1
2018-03-24T10:09:19.272Z,8.5
2018-03-24T10:15:10.157Z,8.23
2018-03-24T10:21:01.035Z,7.19
2018-03-24T10:26:51.787Z,6.59
2018-03-24T10:32:42.677Z,6.75
2018-03-24T10:38:33.496Z,6.03
2018-03-24T10:44:24.377Z,6.71
2018-03-24T10:50:15.222Z,6.43
2018-03-24T10:56:06.111Z,5.54
2018-03-24T11:01:57.015Z,6.07
2018-03-24T11:07:47.800Z,6.23
2018-03-24T11:13:38.701Z,5.35
2018-03-24T11:19:29.578Z,5.16
2018-03-24T11:25:20.403Z,5.2
2018-03-24T11:31:11.286Z,4.76
2018-03-24T11:37:02.182Z,4.7
2018-03-24T11:42:53.016Z,4.56
2018-03-24T11:48:43.883Z,4.26
2018-03-24T11:54:34.765Z,4.07
2018-03-24T12:00:26.250Z,3.45
2018-03-24T12:06:16.588Z,3.39
2018-03-24T12:12:07.439Z,3.85
2018-03-24T12:17:58.275Z,3.08
2018-03-24T12:23:49.248Z,3.21
2018-03-24T12:29:40.061Z,2.59
2018-03-24T12:35:30.933Z,3.32
2018-03-24T12:41:21.863Z,2.84
2018-03-24T12:47:12.772Z,2.74
2018-03-24T12:53:03.614Z,3.56
2018-03-24T12:58:54.487Z,3.03
2018-03-24T13:04:45.413Z,3.26
2018-03-24T13:10:36.302Z,3.12
2018-03-24T13:16:27.246Z,3.08
2018-03-24T13:22:18.078Z,3.32
2018-03-24T13:28:09.012Z,2.79
2018-03-24T13:33:59.902Z,3.15
2018-03-24T13:39:50.792Z,2.66
2018-03-24T13:45:41.642Z,2.68
2018-03-24T13:51:32.543Z,2.76
2018-03-24T13:57:23.416Z,2.52
2018-03-24T14:03:14.304Z,2.99
2018-03-24T14:09:05.204Z,2.93
2018-03-24T14:14:56.167Z,3.24
2018-03-24T14:20:47.028Z,3.86
2018-03-24T14:26:37.908Z,6.4
2018-03-24T14:32:28.708Z,5.67
2018-03-24T14:38:19.642Z,6.32
2018-03-24T14:44:10.499Z,5.99
2018-03-24T14:50:01.328Z,5.75
2018-03-24T14:55:52.253Z,4.93
2018-03-24T15:01:43.098Z,6.54
2018-03-24T15:07:34.009Z,5.37
2018-03-24T15:13:24.886Z,6.05
2018-03-24T15:19:15.771Z,4.83
2018-03-24T15:25:06.650Z,5.79
2018-03-24T15:30:57.511Z,5.4
2018-03-24T15:36:48.404Z,5.23
2018-03-24T15:42:39.254Z,4.95
2018-03-24T15:48:30.145Z,4.84
2018-03-24T15:54:21.029Z,4.64
2018-03-24T16:00:11.907Z,4.6
2018-03-24T16:06:02.792Z,4.32
2018-03-24T16:11:53.696Z,4.35
2018-03-24T16:17:44.577Z,4.18
2018-03-24T16:23:35.436Z,4.06
2018-03-24T16:29:26.334Z,4.09
2018-03-24T16:35:17.190Z,4.08
2018-03-24T16:41:08.061Z,4.29
2018-03-24T16:46:58.977Z,3.44
2018-03-24T16:52:49.788Z,3.96
2018-03-24T16:58:40.672Z,3.49
2018-03-24T17:04:31.566Z,4.24
2018-03-24T17:10:22.453Z,4.17
2018-03-24T17:16:13.297Z,3.71
2018-03-24T17:22:04.151Z,4.32
2018-03-24T17:27:55.025Z,3.62
2018-03-24T17:33:45.890Z,3.75
2018-03-24T17:39:36.758Z,4
2018-03-24T17:45:27.684Z,4.04
2018-03-24T17:51:18.485Z,4.07
2018-03-24T17:57:09.363Z,3.63
2018-03-24T18:03:00.229Z,4.16
2018-03-24T18:08:51.070Z,3.95
2018-03-24T18:14:41.933Z,3.58
2018-03-24T18:20:32.860Z,4.14
2018-03-24T18:26:23.714Z,4.06
2018-03-24T18:32:14.607Z,4.52
2018-03-24T18:38:05.396Z,4.49
2018-03-24T18:43:56.254Z,4.11
2018-03-24T18:49:47.139Z,4.41
2018-03-24T18:55:37.998Z,3.65
2018-03-24T19:01:28.895Z,4.11
2018-03-24T19:07:19.746Z,3.99
2018-03-24T19:13:10.583Z,3.69
2018-03-24T19:19:01.472Z,4.41
2018-03-24T19:24:52.332Z,5.08
2018-03-24T19:30:43.160Z,4.63
2018-03-24T19:36:34.032Z,4.12
2018-03-24T19:42:24.866Z,4.33
2018-03-24T19:48:15.748Z,4.74
2018-03-24T19:54:06.607Z,6.3
2018-03-24T19:59:57.492Z,5.89
2018-03-24T20:05:48.335Z,5.26
2018-03-24T20:11:39.180Z,5.25
2018-03-24T20:17:30.048Z,5.17
2018-03-24T20:23:20.933Z,4.95
2018-03-24T20:29:11.833Z,7.46
2018-03-24T20:35:02.629Z,6.26
2018-03-24T20:40:53.486Z,5.86
2018-03-24T20:46:44.382Z,4.98
2018-03-24T20:52:35.224Z,4.71
2018-03-24T20:58:26.021Z,4.44
2018-03-24T21:04:16.880Z,3.93
2018-03-24T21:10:07.785Z,4.37
2018-03-24T21:15:58.624Z,4.47
2018-03-24T21:21:49.479Z,3.58
2018-03-24T21:27:40.299Z,4.29
2018-03-24T21:33:31.165Z,3.5
2018-03-24T21:39:22.117Z,4.13
2018-03-24T21:45:12.893Z,3.56
2018-03-24T21:51:03.880Z,3.76
2018-03-24T21:56:54.630Z,3.97
2018-03-24T22:02:45.496Z,3.76
2018-03-24T22:08:36.331Z,3.64
2018-03-24T22:14:27.176Z,3.54
2018-03-24T22:20:18.079Z,3.62
2018-03-24T22:26:08.910Z,3.31
2018-03-24T22:31:59.730Z,3.95
2018-03-24T22:37:50.597Z,3.44
2018-03-24T22:43:41.475Z,3.44
2018-03-24T22:49:32.301Z,3.65
2018-03-24T22:55:23.148Z,3.85
2018-03-24T23:01:14.061Z,3.76
2018-03-24T23:07:04.894Z,3.61
2018-03-24T23:12:55.749Z,3.21
2018-03-24T23:18:46.709Z,3.54
2018-03-24T23:24:37.456Z,3.45
2018-03-24T23:30:28.326Z,3.63
2018-03-24T23:36:19.169Z,3.07
2018-03-24T23:42:10.064Z,3.12
2018-03-24T23:48:00.888Z,3.15
2018-03-24T23:53:51.796Z,3.16
2018-03-24T23:59:42.605Z,2.98
